• Join FlightAware (Why Join?)
  • Login
  • US Flag 
06:36PM EDT


 

Airport Tracker/Info


-or-


 

Live Flight TrackerFlight Track Log ✈ ASQ5013 ✈ 18-Apr-2013 ✈ KATL - KPHF

Flight Track Log - Related Links

Times and Time Zones

All times are in EDT time to prevent confusion due to time zone crossing. See the ASQ5013 flight status page for this flight to view local times or setup timezone preferences in your user account.

Time Position Orientation Groundspeed Altitude Reporting Facility
EDT Latitude Longitude Course Direction KTS MPH feet Rate Location/Type
02:47PM 33.6333 -84.3833 90° East 173 199 2,600  Level Atlanta TRACON
02:48PM 33.6333 -84.3000 90° East 242 278 3,700 2,100 Climbing Atlanta TRACON
02:49PM 33.6333 -84.2167 90° East 267 307 6,600 2,460 Climbing Atlanta TRACON
02:50PM 33.6356 -84.0711 89° East 311 358 10,100 1,680 Climbing Atlanta Center
02:51PM 33.6419 -83.9614 86° East 318 366 11,000 1,140 Climbing Atlanta Center
02:52PM 33.6500 -83.8417 85° East 345 397 12,400 1,200 Climbing Atlanta Center
02:53PM 33.6539 -83.7319 88° East 356 410 13,500 1,140 Climbing Atlanta Center
02:54PM 33.6744 -83.6094 79° East 369 425 14,700 1,200 Climbing Atlanta Center
02:55PM 33.7219 -83.4944 64° Northeast 376 433 15,900 1,080 Climbing Atlanta Center
02:56PM 33.7675 -83.3717 66° East 388 447 16,900 900 Climbing Atlanta Center
02:57PM 33.8189 -83.2511 63° Northeast 393 452 17,800 1,020 Climbing Atlanta Center
02:58PM 33.8681 -83.1256 65° Northeast 399 459 19,000 1,200 Climbing Atlanta Center
02:59PM 33.9172 -83.0050 64° Northeast 399 459 20,200 1,020 Climbing Atlanta Center
03:00PM 33.9767 -82.8839 59° Northeast 411 473 21,100 900 Climbing Atlanta Center
03:01PM 34.0400 -82.7528 60° Northeast 417 480 22,000 840 Climbing Atlanta Center
03:02PM 34.1033 -82.6289 58° Northeast 424 488 22,800 720 Climbing Atlanta Center
03:03PM 34.1542 -82.5175 61° Northeast 424 488 23,500 660 Climbing Atlanta Center
03:04PM 34.2172 -82.3908 59° Northeast 424 488 24,200 660 Climbing Atlanta Center
03:05PM 34.2761 -82.2639 61° Northeast 424 488 24,900 660 Climbing Atlanta Center
03:06PM 34.3389 -82.1369 59° Northeast 424 488 25,600 600 Climbing Atlanta Center
03:07PM 34.4014 -82.0069 60° Northeast 429 494 26,200 540 Climbing Atlanta Center
03:08PM 34.4639 -81.8744 60° Northeast 429 494 26,700 480 Climbing Atlanta Center
03:09PM 34.5242 -81.7469 60° Northeast 434 499 27,200 480 Climbing Atlanta Center
03:10PM 34.5842 -81.6142 61° Northeast 434 499 27,700 480 Climbing Atlanta Center
03:11PM 34.6483 -81.4861 59° Northeast 434 499 28,200 480 Climbing Atlanta Center
03:12PM 34.7083 -81.3553 61° Northeast 444 511 28,700 480 Climbing Atlanta Center
03:13PM 34.7594 -81.2172 66° East 444 511 29,200 480 Climbing Atlanta Center
03:14PM 34.8103 -81.0789 66° East 444 511 29,700 480 Climbing Atlanta Center
03:15PM 34.8650 -80.9275 66° East 444 511 30,200 480 Climbing Atlanta Center
03:16PM 34.9136 -80.7889 67° East 444 511 30,700 360 Climbing Atlanta Center
03:17PM 34.9642 -80.6503 66° East 449 517 31,000 120 Climbing Atlanta Center
03:18PM 35.0144 -80.5086 67° East 442 509 31,000  Level Atlanta Center
03:19PM 35.0706 -80.3617 65° Northeast 451 519 31,000  Level Atlanta Center
03:21PM 35.1636 -80.0939 67° East 471 542 31,000 -300 Level Washington Center
03:22PM 35.2172 -79.9469 66° East 466 536 30,200 -900 Descending Washington Center
03:23PM 35.2772 -79.7797 66° East 477 549 29,300 -600 Descending Washington Center
03:24PM 35.3258 -79.6422 67° East 489 563 29,000 -180 Descending Washington Center
03:25PM 35.3836 -79.4772 67° East 489 563 29,000  Level Washington Center
03:26PM 35.4275 -79.3467 68° East 477 549 29,000  Level Washington Center
03:27PM 35.4800 -79.1986 66° East 466 536 29,000  Level Washington Center
03:28PM 35.5258 -79.0553 69° East 460 529 29,000  Level Washington Center
03:29PM 35.5806 -78.8967 67° East 460 529 29,000  Level Washington Center
03:30PM 35.6236 -78.7631 68° East 454 522 29,000  Level Washington Center
03:31PM 35.6778 -78.6144 66° East 445 512 29,000  Level Washington Center
03:32PM 35.7250 -78.4703 68° East 440 506 29,000 -360 Level Washington Center
03:33PM 35.7722 -78.3236 68° East 457 526 28,300 -900 Descending Washington Center
03:34PM 35.8214 -78.1742 68° East 463 533 27,200 -1,200 Descending Washington Center
03:35PM 35.8728 -78.0247 67° East 470 541 25,900 -1,440 Descending Washington Center
03:36PM 35.9214 -77.8747 68° East 465 535 24,400 -1,380 Descending Washington Center
03:37PM 35.9658 -77.7400 68° East 473 544 23,200 -1,320 Descending Washington Center
03:38PM 36.0267 -77.6003 62° Northeast 462 532 21,800 -1,140 Descending Washington Center
03:39PM 36.0958 -77.4506 60° Northeast 457 526 21,000 -900 Descending Washington Center
03:40PM 36.1644 -77.3236 56° Northeast 452 520 20,100 -5,040 Descending Washington Center
03:41PM 36.2350 -77.2014 54° Northeast 445 512 11,000 -1,740 Descending Washington Center
03:42PM 36.3011 -77.0792 56° Northeast 432 497 16,700 2,040 Climbing Washington Center
03:43PM 36.3653 -76.9642 55° Northeast 421 484 15,100 -1,620 Descending Washington Center
03:44PM 36.4333 -76.8467 54° Northeast 416 479 13,500 -1,680 Descending Washington Center
03:45PM 36.5303 -76.7525 38° Northeast 384 442 11,500 -1,320 Descending Washington Center
03:46PM 36.6158 -76.7331 10° North 367 422 10,900 -540 Descending Washington Center
03:47PM 36.7161 -76.7192 North 360 414 10,600 -1,020 Descending Washington Center
03:48PM 36.8019 -76.7047 North 333 383 8,900 -1,800 Descending Washington Center
03:49PM 36.8856 -76.6878 North 314 361 7,000 -1,800 Descending Washington Center
03:50PM 36.9669 -76.6733 North 302 348 5,300 -1,560 Descending Washington Center
03:50PM 36.9814 -76.6736 359° North 287 330 5,100 -300 Descending Washington Center
03:51PM 37.0381 -76.6586 12° North 283 326 5,000 -120 Descending Washington Center
03:51PM 37.0631 -76.6564 North 241 277 5,000  Level Washington Center
03:52PM 37.1047 -76.6439 13° North 254 292 5,000  Level Washington Center
03:52PM 37.1258 -76.6392 10° North 248 285 5,000 -600 Level Washington Center
03:53PM 37.1597 -76.5744 57° Northeast 234 269 4,300 -1,020 Descending Washington Center
03:54PM 37.1978 -76.5069 55° Northeast 232 267 3,000 -1,320 Descending Washington Center